Decoded Metar for YBHM (HAMILTON ISLAND in AUSTRALIA) (IATA:N/A) | Meteo·Mobile Aviation Weather
aviador You're here:

YBHM Decoded Metar

HAMILTON ISLAND in AUSTRALIA
Report Time2018-10-23 10:00:00
UTC Time2018-10-23 10:20:43
Flight Rules vfr VFR
Wind090° at 12 kt
W.Decomp.*RWY 14: 6.4 kt HW 10.2 kt LCW
W.Rank090° ranks 8
Current wind is below 090° avg. (12.4)
Visibility9999 m
Phenomena:N/A
Clouds:Scattered 022 Hf
Expected CloudBase > 1,600 ft AGL from Temp-Dew spread
CeilingNone
Temp24°C (ISA +9)
Dew Point20°C (78% RH)
AAT23.3°C
QNH1015 hPa
Density Alt1,306 ft
Elevation16 ft
Report Wrong Elevation
Raw Report
METAR YBHM 231000Z AUTO 09012KT 9999 // SCT022 24/20 Q1015=

Extra information for YBHM:More info

Metar Taf Metar & Taf Last 4 Metars F.Rules Stats Wind Profile Meteogram Temp Stats Airport Information Weather charts Add Link Nearby VenuesMetar ALERT Operation Metar Decoded Social comments